Time;durP1;ratioP1;P1;durP2;ratioP2;P2;SDS_P1;SDS_P2;PMS_P1;PMS_P2;Temp;Humidity;BMP_temperature;BMP_pressure;BME280_temperature;BME280_humidity;BME280_pressure;Samples;Min_cycle;Max_cycle;Signal;HPM_P1;HPM_P2
2023/10/05 00:02:10;;;;;;;9.48;5.65;;;;;;;17.24;56.88;98930.28;5068159;28;20709;-57
2023/10/05 00:04:41;;;;;;;9.60;5.43;;;;;;;17.12;57.66;98938.34;5068209;28;20181;-57
2023/10/05 00:07:26;;;;;;;8.88;5.63;;;;;;;17.05;57.64;98926.78;5073791;28;20597;-57
2023/10/05 00:09:52;;;;;;;9.75;6.05;;;;;;;17.15;57.46;98940.72;5090809;28;20211;-57
2023/10/05 00:12:20;;;;;;;10.25;6.07;;;;;;;16.99;57.79;98914.22;5090780;28;20203;-57
2023/10/05 00:17:29;;;;;;;11.50;6.35;;;;;;;16.78;58.13;98896.00;5111101;28;20617;-57
2023/10/05 00:19:55;;;;;;;9.48;5.57;;;;;;;16.88;58.49;98927.41;5111037;28;20296;-57
2023/10/05 00:22:20;;;;;;;9.98;5.90;;;;;;;16.95;58.45;98933.75;5111033;28;20178;-57
2023/10/05 00:24:48;;;;;;;10.48;6.45;;;;;;;16.77;59.39;98917.88;5111043;28;20175;-57
2023/10/05 00:27:15;;;;;;;9.00;5.05;;;;;;;16.92;59.02;98934.03;5110973;28;20224;-57
2023/10/05 00:29:41;;;;;;;9.18;6.00;;;;;;;16.78;58.33;98896.00;5110966;28;20179;-57
2023/10/05 00:32:18;;;;;;;9.82;5.47;;;;;;;16.94;58.57;98917.25;5110860;28;20167;-57
2023/10/05 00:34:47;;;;;;;8.73;5.80;;;;;;;17.05;58.27;98929.38;5110793;28;20179;-57
2023/10/05 00:37:13;;;;;;;9.98;5.70;;;;;;;16.89;57.91;98889.84;5110855;28;20175;-57
2023/10/05 00:39:39;;;;;;;10.40;5.65;;;;;;;16.83;58.22;98899.03;5047688;28;20652;-57
2023/10/05 00:42:11;;;;;;;8.20;4.88;;;;;;;17.00;58.43;98926.34;5047804;28;20185;-57
2023/10/05 00:44:39;;;;;;;9.20;5.63;;;;;;;16.79;58.31;98909.91;5047736;28;20272;-57
2023/10/05 00:47:06;;;;;;;8.50;5.65;;;;;;;16.91;58.71;98940.22;5047726;28;20252;-57
2023/10/05 00:52:15;;;;;;;8.98;5.97;;;;;;;16.79;59.01;98920.34;5047779;28;20571;-57
2023/10/05 00:54:48;;;;;;;9.98;5.65;;;;;;;16.66;59.12;98902.28;5007877;28;20285;-57
2023/10/05 00:57:15;;;;;;;11.18;6.03;;;;;;;16.75;59.26;98932.03;5008066;28;20681;-57
2023/10/05 00:59:42;;;;;;;9.27;5.47;;;;;;;16.80;59.15;98948.16;5008067;28;20182;-57
2023/10/05 01:02:20;;;;;;;10.82;5.32;;;;;;;16.45;59.67;98921.56;5008997;28;20280;-57
2023/10/05 01:14:59;;;;;;;8.80;5.30;;;;;;;16.34;60.71;98911.16;5070792;28;20632;-57
2023/10/05 01:17:27;;;;;;;10.07;5.30;;;;;;;16.43;60.98;98923.44;5071078;28;20188;-57
2023/10/05 01:19:58;;;;;;;11.63;5.93;;;;;;;16.46;61.87;98941.50;5071056;28;20192;-57
2023/10/05 01:22:32;;;;;;;9.73;5.63;;;;;;;16.30;62.06;98920.19;5070993;28;20668;-57
2023/10/05 01:24:59;;;;;;;13.50;6.22;;;;;;;16.43;62.00;98936.50;5075520;28;20274;-57
2023/10/05 01:27:29;;;;;;;11.80;6.07;;;;;;;16.32;62.54;98903.44;5093587;28;20575;-57
2023/10/05 01:29:55;;;;;;;12.38;6.75;;;;;;;16.18;62.99;98901.16;5093168;28;20643;-57
2023/10/05 01:32:20;;;;;;;11.00;5.70;;;;;;;16.26;61.68;98898.72;5093471;28;20221;-57
2023/10/05 01:34:50;;;;;;;9.80;5.50;;;;;;;16.44;61.94;98932.97;5093374;28;20180;-57
2023/10/05 01:37:18;;;;;;;12.95;6.35;;;;;;;16.29;62.56;98906.31;5093290;28;20195;-57
2023/10/05 01:39:44;;;;;;;12.48;5.88;;;;;;;16.29;63.22;98915.94;5093283;28;20180;-58
2023/10/05 01:42:14;;;;;;;12.18;5.60;;;;;;;16.30;61.79;98912.34;5093298;28;20255;-57
2023/10/05 01:44:46;;;;;;;11.15;6.15;;;;;;;16.40;61.38;98915.88;5093264;28;20207;-56
2023/10/05 01:47:14;;;;;;;10.60;5.38;;;;;;;16.31;61.39;98911.38;5093173;28;20747;-56
2023/10/05 01:49:41;;;;;;;11.77;6.00;;;;;;;16.15;61.84;98896.19;5093120;28;20179;-56
2023/10/05 01:52:07;;;;;;;11.32;5.72;;;;;;;16.47;61.46;98930.09;5093067;28;20168;-56
2023/10/05 01:54:34;;;;;;;9.65;5.75;;;;;;;16.50;61.05;98928.03;5092931;28;20203;-56
2023/10/05 01:57:03;;;;;;;12.07;6.05;;;;;;;16.36;61.27;98910.06;5093024;28;20177;-57
2023/10/05 01:59:33;;;;;;;9.95;5.07;;;;;;;16.24;61.68;98905.88;5093041;28;20199;-56
2023/10/05 02:02:00;;;;;;;11.77;5.22;;;;;;;16.43;61.12;98911.22;5092791;28;20168;-57
2023/10/05 02:04:25;;;;;;;9.98;5.57;;;;;;;16.35;61.19;98913.63;5092591;28;20631;-56
2023/10/05 02:06:52;;;;;;;10.52;5.55;;;;;;;16.49;61.04;98930.81;5092694;28;20207;-57
2023/10/05 02:09:19;;;;;;;11.68;6.57;;;;;;;16.64;60.93;98945.16;5092903;28;20176;-57
2023/10/05 02:11:47;;;;;;;10.68;6.13;;;;;;;16.26;61.58;98908.38;5092764;28;20181;-57
2023/10/05 02:14:14;;;;;;;9.70;5.65;;;;;;;16.48;61.53;98934.34;5091501;28;20184;-57
2023/10/05 02:16:40;;;;;;;9.75;6.15;;;;;;;16.59;61.14;98944.72;5092417;28;20737;-57
2023/10/05 02:19:07;;;;;;;14.68;6.10;;;;;;;16.64;61.09;98950.41;5092595;28;20179;-57
2023/10/05 02:21:36;;;;;;;11.82;5.88;;;;;;;16.52;61.14;98927.91;5092424;28;20212;-57
2023/10/05 02:24:15;;;;;;;11.93;6.38;;;;;;;16.61;61.28;98948.88;5092856;28;20637;-57
2023/10/05 02:29:26;;;;;;;15.48;5.60;;;;;;;16.50;61.08;98916.78;5092518;28;20185;-57
2023/10/05 02:34:35;;;;;;;8.65;5.20;;;;;;;16.58;61.09;98936.06;5092453;28;20187;-57
2023/10/05 02:37:01;;;;;;;9.90;6.20;;;;;;;16.54;61.13;98945.13;5092345;28;20232;-58
2023/10/05 02:39:27;;;;;;;10.70;5.90;;;;;;;16.67;60.99;98958.00;5092250;28;20179;-57
2023/10/05 02:41:54;;;;;;;12.05;5.97;;;;;;;16.79;60.82;98970.03;5092061;28;20284;-57
2023/10/05 02:46:48;;;;;;;9.48;5.80;;;;;;;16.65;60.57;98939.81;5091944;28;20555;-57
2023/10/05 02:49:18;;;;;;;10.07;5.95;;;;;;;16.63;61.35;98964.41;5091663;28;20532;-57
2023/10/05 02:51:44;;;;;;;13.13;6.10;;;;;;;16.37;61.30;98921.31;5092185;28;20176;-56
2023/10/05 02:54:15;;;;;;;12.02;5.88;;;;;;;16.42;61.59;98942.69;5091850;28;20183;-56
2023/10/05 02:56:41;;;;;;;9.63;5.47;;;;;;;16.62;61.71;98962.78;5069007;28;20200;-56
2023/10/05 02:59:14;;;;;;;11.02;5.85;;;;;;;16.61;61.52;98946.25;5069072;28;20200;-57
2023/10/05 03:01:43;;;;;;;8.32;5.25;;;;;;;16.49;61.30;98929.00;5068817;28;20621;-57
2023/10/05 03:06:40;;;;;;;9.10;5.95;;;;;;;16.52;61.25;98935.75;5068883;28;20268;-56
2023/10/05 03:09:07;;;;;;;8.52;6.07;;;;;;;16.66;61.09;98953.69;5068917;28;20176;-57
2023/10/05 03:11:41;;;;;;;10.25;5.93;;;;;;;16.45;61.15;98939.84;5068105;28;20185;-57
2023/10/05 03:14:10;;;;;;;11.63;5.88;;;;;;;16.36;62.22;98948.41;5068864;28;20199;-56
2023/10/05 03:16:48;;;;;;;11.23;6.50;;;;;;;16.36;62.02;98936.19;5068352;28;20275;-56
2023/10/05 03:19:20;;;;;;;10.80;5.90;;;;;;;16.29;61.97;98923.75;5068708;28;20293;-56
2023/10/05 03:21:53;;;;;;;10.82;6.05;;;;;;;16.42;62.23;98942.69;5068676;28;20346;-57
2023/10/05 03:24:19;;;;;;;14.35;5.80;;;;;;;16.28;62.03;98911.66;5068423;28;20177;-57
2023/10/05 03:26:46;;;;;;;9.02;5.50;;;;;;;16.42;62.19;98927.03;5070526;28;20549;-56
2023/10/05 03:29:12;;;;;;;7.93;5.30;;;;;;;16.28;62.18;98907.25;5088833;28;20231;-56
2023/10/05 03:31:43;;;;;;;11.25;6.03;;;;;;;16.37;62.23;98931.78;5088864;28;20599;-57
2023/10/05 03:34:10;;;;;;;9.88;5.88;;;;;;;16.19;62.38;98913.25;5091199;28;20184;-56
2023/10/05 03:36:36;;;;;;;8.95;5.72;;;;;;;16.05;63.02;98904.91;5091224;28;20180;-56
2023/10/05 03:39:06;;;;;;;9.70;6.15;;;;;;;16.23;63.25;98946.00;5091231;28;20182;-56
2023/10/05 03:41:32;;;;;;;8.75;5.57;;;;;;;16.13;63.56;98944.25;5091105;28;20551;-56
2023/10/05 03:44:02;;;;;;;8.48;5.63;;;;;;;16.22;63.37;98940.91;5091130;28;20179;-56
2023/10/05 03:46:27;;;;;;;10.68;5.93;;;;;;;16.08;63.35;98921.16;5090819;28;20208;-57
2023/10/05 03:49:06;;;;;;;11.63;5.93;;;;;;;16.00;63.55;98910.53;5091248;28;20513;-56
2023/10/05 03:51:32;;;;;;;10.90;6.18;;;;;;;16.26;63.67;98963.19;5090987;28;20630;-56
2023/10/05 03:53:58;;;;;;;22.05;6.03;;;;;;;16.36;63.03;98961.47;5090781;28;20176;-56
2023/10/05 03:56:26;;;;;;;14.82;6.40;;;;;;;16.30;63.22;98956.75;5091059;28;20184;-57
2023/10/05 03:58:54;;;;;;;14.15;6.00;;;;;;;16.33;63.42;98962.53;5090654;28;20555;-56
2023/10/05 04:01:22;;;;;;;11.18;5.88;;;;;;;15.96;63.75;98939.59;5090846;28;20172;-57
2023/10/05 04:03:49;;;;;;;9.23;6.35;;;;;;;16.15;63.22;98947.59;5090931;28;20194;-57
2023/10/05 04:06:19;;;;;;;10.25;5.32;;;;;;;16.17;63.50;98950.88;5090606;28;20639;-57
2023/10/05 04:08:47;;;;;;;9.88;5.97;;;;;;;16.25;63.42;98964.13;5090912;28;20533;-57
2023/10/05 04:11:13;;;;;;;9.60;5.90;;;;;;;16.34;63.21;98969.44;5090939;28;20176;-57
2023/10/05 04:13:39;;;;;;;13.05;6.20;;;;;;;16.26;63.09;98950.16;5090983;28;20665;-57
2023/10/05 04:16:18;;;;;;;9.82;6.10;;;;;;;16.17;63.28;98943.06;5105117;28;20223;-56
2023/10/05 04:18:46;;;;;;;9.40;5.72;;;;;;;16.05;64.61;98967.56;5111289;28;20588;-56
2023/10/05 04:21:15;;;;;;;11.15;6.15;;;;;;;15.93;65.73;98986.84;5111141;28;20178;-58
2023/10/05 04:23:42;;;;;;;10.75;6.15;;;;;;;15.94;65.69;98991.09;5111044;28;20523;-57
2023/10/05 04:26:09;;;;;;;9.73;6.05;;;;;;;15.87;65.52;98963.84;5110974;28;20199;-57
2023/10/05 04:28:35;;;;;;;13.88;6.72;;;;;;;16.00;65.75;98981.00;5110945;28;20679;-56
2023/10/05 04:31:00;;;;;;;10.02;5.78;;;;;;;16.00;66.19;98986.22;5110866;28;20266;-56
2023/10/05 04:33:27;;;;;;;10.32;6.30;;;;;;;15.93;65.65;98979.00;5110673;28;20262;-56
2023/10/05 04:35:53;;;;;;;13.15;6.45;;;;;;;16.04;66.49;98997.25;5110905;28;20187;-56
2023/10/05 04:38:25;;;;;;;12.35;6.53;;;;;;;15.97;67.11;98989.06;5113922;28;20194;-56
2023/10/05 04:40:54;;;;;;;14.50;5.80;;;;;;;15.97;65.86;98981.25;5114812;28;20179;-56
2023/10/05 04:43:21;;;;;;;10.95;5.78;;;;;;;15.95;66.22;98988.38;5114710;28;20558;-56
2023/10/05 04:45:48;;;;;;;8.90;5.90;;;;;;;15.99;66.33;98983.72;5114596;28;20206;-56
2023/10/05 04:48:13;;;;;;;10.07;5.90;;;;;;;16.02;66.10;98980.84;5114609;28;20196;-56
2023/10/05 04:50:42;;;;;;;13.25;5.97;;;;;;;15.93;65.52;98958.94;5114802;28;20668;-56
2023/10/05 04:53:13;;;;;;;12.95;5.43;;;;;;;16.00;65.59;98986.22;5114602;28;20654;-56
2023/10/05 04:55:44;;;;;;;9.98;5.45;;;;;;;16.08;65.45;98983.81;5114635;28;20190;-57
2023/10/05 04:58:31;;;;;;;9.80;5.65;;;;;;;16.00;64.89;98961.88;5114491;28;20163;-56
2023/10/05 05:01:28;;;;;;;10.80;5.47;;;;;;;16.25;64.64;98995.47;5114499;28;20671;-56
2023/10/05 05:03:55;;;;;;;9.85;6.10;;;;;;;15.94;65.84;98962.38;5051087;28;20185;-56
2023/10/05 05:06:21;;;;;;;12.60;6.10;;;;;;;16.19;65.28;98993.34;5051244;28;20638;-57
2023/10/05 05:08:46;;;;;;;9.65;5.45;;;;;;;16.21;64.73;98976.63;5051325;28;20200;-57
2023/10/05 05:11:21;;;;;;;10.00;6.25;;;;;;;16.13;64.63;98959.91;5051247;28;20660;-57
2023/10/05 05:13:48;;;;;;;12.35;6.07;;;;;;;16.20;64.50;98961.91;5051192;28;20698;-56
2023/10/05 05:16:15;;;;;;;9.23;5.53;;;;;;;16.24;64.19;98952.88;5050782;28;20306;-57
2023/10/05 05:18:41;;;;;;;12.40;6.60;;;;;;;16.36;64.11;98956.25;5051040;28;20197;-57
2023/10/05 05:21:12;;;;;;;12.15;6.68;;;;;;;16.38;63.81;98962.19;5051128;28;20680;-57
2023/10/05 05:23:42;;;;;;;13.20;5.93;;;;;;;16.35;63.84;98941.53;5051025;28;20221;-57
2023/10/05 05:26:09;;;;;;;10.35;6.00;;;;;;;16.47;63.18;98949.22;5030795;28;20622;-55
2023/10/05 05:28:37;;;;;;;10.27;6.47;;;;;;;16.59;62.98;98973.47;5030890;28;20339;-56
2023/10/05 05:31:14;;;;;;;10.27;5.40;;;;;;;16.58;63.04;98959.59;5030795;28;20197;-56
2023/10/05 05:33:41;;;;;;;10.15;5.35;;;;;;;16.90;62.51;99001.31;5033325;28;20620;-56
2023/10/05 05:36:11;;;;;;;9.13;5.47;;;;;;;17.01;62.03;99007.28;5070598;28;20207;-57
2023/10/05 05:38:39;;;;;;;11.27;5.90;;;;;;;17.05;61.89;99007.84;5070695;28;20707;-56
2023/10/05 05:41:27;;;;;;;9.63;5.93;;;;;;;16.96;61.86;98998.16;5070687;28;20200;-56
2023/10/05 05:43:53;;;;;;;11.23;5.70;;;;;;;17.01;61.57;98995.97;5070573;28;20738;-55
2023/10/05 05:46:19;;;;;;;10.60;5.57;;;;;;;16.98;61.59;98989.25;5070457;28;20304;-56
2023/10/05 05:48:48;;;;;;;10.73;5.55;;;;;;;17.17;61.62;98991.09;5070202;28;20704;-56
2023/10/05 05:51:15;;;;;;;10.38;5.70;;;;;;;17.21;61.21;98995.91;5070455;28;20184;-56
2023/10/05 05:53:44;;;;;;;9.55;6.47;;;;;;;17.28;61.02;99004.06;5070371;28;20184;-57
2023/10/05 05:56:16;;;;;;;12.10;6.35;;;;;;;17.30;60.68;99004.75;5070409;28;20188;-57
2023/10/05 05:58:45;;;;;;;13.68;6.60;;;;;;;17.29;60.04;98980.41;5070425;28;20180;-57
2023/10/05 06:01:14;;;;;;;10.85;6.60;;;;;;;17.46;60.08;99007.75;5070186;28;20189;-56
2023/10/05 06:03:42;;;;;;;10.00;6.35;;;;;;;17.67;59.51;99021.59;5072279;28;21048;-56
2023/10/05 06:06:07;;;;;;;10.73;5.72;;;;;;;17.65;59.53;99010.41;5092799;28;20269;-56
2023/10/05 06:08:32;;;;;;;11.70;5.95;;;;;;;17.83;59.08;99019.28;5092865;28;20611;-56
2023/10/05 06:10:58;;;;;;;11.00;5.53;;;;;;;17.72;59.15;98994.03;5093102;28;20555;-56
2023/10/05 06:13:24;;;;;;;10.82;6.70;;;;;;;18.08;58.64;99047.56;5092801;28;20178;-56
2023/10/05 06:15:49;;;;;;;10.43;5.82;;;;;;;18.10;58.85;99030.75;5103717;28;20223;-57
2023/10/05 06:18:14;;;;;;;13.00;7.25;;;;;;;18.18;59.34;99032.69;5112790;28;20308;-57
2023/10/05 06:20:40;;;;;;;17.80;7.43;;;;;;;18.08;60.49;99032.66;5113304;28;20548;-56
2023/10/05 06:23:06;;;;;;;18.65;7.78;;;;;;;18.28;60.57;99043.97;5112968;28;20279;-56
2023/10/05 06:25:31;;;;;;;15.77;7.43;;;;;;;18.36;60.67;99058.09;5112842;28;20541;-56
2023/10/05 06:27:57;;;;;;;17.00;8.13;;;;;;;18.56;60.54;99067.63;5112849;28;20214;-56
2023/10/05 06:30:23;;;;;;;15.48;8.70;;;;;;;18.55;60.18;99052.84;5112688;28;20199;-56
2023/10/05 06:32:48;;;;;;;15.55;7.57;;;;;;;18.78;59.94;99067.28;5112733;28;20178;-56
2023/10/05 06:35:14;;;;;;;19.75;7.97;;;;;;;19.06;59.19;99091.84;5112623;28;20558;-56
2023/10/05 06:37:41;;;;;;;11.50;6.30;;;;;;;18.95;58.15;99045.59;5112313;28;20660;-56
2023/10/05 06:40:12;;;;;;;11.15;6.90;;;;;;;19.03;55.42;99052.75;5112665;28;20172;-56
2023/10/05 06:42:39;;;;;;;13.90;5.75;;;;;;;19.13;55.17;99064.06;5112538;28;20254;-56
2023/10/05 06:45:07;;;;;;;10.38;5.82;;;;;;;19.27;54.87;99066.25;5112437;28;20175;-56
2023/10/05 06:47:36;;;;;;;13.20;5.88;;;;;;;19.44;54.43;99068.13;5112250;28;20581;-56
2023/10/05 06:50:08;;;;;;;10.50;6.13;;;;;;;19.51;53.81;99053.44;5112353;28;20175;-56
2023/10/05 06:52:36;;;;;;;11.80;8.10;;;;;;;19.75;53.85;99087.91;5112420;28;20601;-56
2023/10/05 06:55:07;;;;;;;11.02;5.95;;;;;;;19.64;52.84;99077.59;5112256;28;20176;-56
2023/10/05 06:57:38;;;;;;;13.75;6.75;;;;;;;19.62;53.35;99067.22;5112243;28;20182;-56
2023/10/05 07:00:11;;;;;;;8.45;6.07;;;;;;;19.84;54.04;99087.00;5111678;28;20182;-56
2023/10/05 07:02:38;;;;;;;11.48;5.65;;;;;;;19.82;53.25;99078.47;5111992;28;20180;-56
2023/10/05 07:05:05;;;;;;;13.23;7.32;;;;;;;19.93;53.12;99094.84;5111778;28;20591;-56
2023/10/05 07:07:34;;;;;;;13.65;7.22;;;;;;;19.86;53.82;99078.00;5112061;28;20259;-56
2023/10/05 07:10:01;;;;;;;15.10;6.75;;;;;;;20.03;54.17;99074.59;5112125;28;20585;-56
2023/10/05 07:12:26;;;;;;;33.00;8.80;;;;;;;20.28;52.98;99088.84;5112095;28;20179;-56
2023/10/05 07:14:51;;;;;;;17.48;6.47;;;;;;;20.36;53.08;99079.25;5111042;28;20234;-56
2023/10/05 07:17:17;;;;;;;10.13;6.40;;;;;;;20.25;51.80;99060.22;5112286;28;20187;-56
2023/10/05 07:19:48;;;;;;;20.30;7.65;;;;;;;20.21;52.68;99062.31;5111536;28;20199;-56
2023/10/05 07:22:13;;;;;;;131.52;14.25;;;;;;;20.28;53.44;99055.50;5111859;28;20175;-56
2023/10/05 07:24:40;;;;;;;26.90;7.55;;;;;;;20.59;53.77;99090.97;5111800;28;20277;-57
2023/10/05 07:27:05;;;;;;;25.73;7.15;;;;;;;20.74;53.15;99091.25;5111609;28;20199;-57
2023/10/05 07:29:30;;;;;;;16.67;6.97;;;;;;;20.75;53.70;99079.75;5111276;28;20656;-57
2023/10/05 07:31:56;;;;;;;14.63;7.03;;;;;;;20.81;53.83;99073.88;5111396;28;20227;-58
2023/10/05 07:34:21;;;;;;;17.85;6.90;;;;;;;20.79;52.84;99050.34;5111663;28;20617;-57
2023/10/05 07:36:47;;;;;;;16.73;6.80;;;;;;;21.02;53.29;99072.56;5111890;28;20190;-57
2023/10/05 07:39:14;;;;;;;14.10;7.43;;;;;;;21.24;52.85;99087.03;5111428;28;20171;-57
2023/10/05 07:41:40;;;;;;;13.32;6.97;;;;;;;21.28;52.33;99083.09;5111287;28;20660;-57
2023/10/05 07:44:05;;;;;;;15.70;7.13;;;;;;;21.36;52.15;99081.34;5111449;28;20175;-57
2023/10/05 07:46:31;;;;;;;13.65;6.43;;;;;;;21.45;52.07;99088.28;5048200;28;20274;-55
2023/10/05 07:48:56;;;;;;;19.08;7.57;;;;;;;21.37;52.11;99055.81;5048390;28;20254;-57
2023/10/05 07:51:22;;;;;;;17.92;7.80;;;;;;;21.62;52.02;99089.22;5048376;28;20177;-56
2023/10/05 07:53:48;;;;;;;16.10;7.18;;;;;;;21.67;52.24;99094.84;5048290;28;20204;-56
2023/10/05 07:56:13;;;;;;;14.55;7.28;;;;;;;21.73;51.78;99083.72;5048435;28;20318;-57
2023/10/05 07:58:39;;;;;;;13.70;7.10;;;;;;;21.56;51.11;99043.25;5048225;28;20255;-56
2023/10/05 08:01:04;;;;;;;15.75;7.10;;;;;;;21.66;51.30;99053.66;5048218;28;20686;-56
2023/10/05 08:03:29;;;;;;;15.05;7.18;;;;;;;21.99;50.85;99079.16;5048217;28;20580;-57
2023/10/05 08:05:55;;;;;;;12.88;7.10;;;;;;;22.09;50.61;99080.69;5048072;28;20659;-57
2023/10/05 08:08:21;;;;;;;12.65;7.38;;;;;;;22.07;50.01;99061.56;5048159;28;20180;-57
2023/10/05 08:10:46;;;;;;;13.73;7.25;;;;;;;22.30;49.93;99082.88;5008425;28;20643;-57
2023/10/05 08:13:12;;;;;;;14.73;6.82;;;;;;;22.25;49.28;99069.38;5011454;28;20190;-57
2023/10/05 08:15:37;;;;;;;14.77;7.20;;;;;;;22.22;49.77;99048.59;5011958;28;20700;-57
2023/10/05 08:18:04;;;;;;;16.27;6.68;;;;;;;22.35;49.81;99054.19;5055965;28;20180;-57
2023/10/05 08:20:31;;;;;;;19.75;7.35;;;;;;;22.49;49.72;99061.50;5072110;28;20302;-57
2023/10/05 08:22:56;;;;;;;13.85;6.93;;;;;;;22.53;49.79;99065.44;5072145;28;20694;-57
2023/10/05 08:25:22;;;;;;;14.48;7.10;;;;;;;22.73;48.76;99091.34;5072086;28;20231;-57
2023/10/05 08:27:48;;;;;;;14.45;7.00;;;;;;;22.66;49.43;99066.63;5072044;28;20243;-57
2023/10/05 08:30:14;;;;;;;20.42;7.50;;;;;;;22.81;49.29;99077.34;5072145;28;20224;-56
2023/10/05 08:32:40;;;;;;;14.80;7.03;;;;;;;22.91;49.40;99088.56;5072009;28;20185;-56
2023/10/05 08:35:12;;;;;;;12.00;6.32;;;;;;;22.73;49.38;99058.88;5071858;28;20180;-56
2023/10/05 08:37:49;;;;;;;19.23;7.45;;;;;;;22.75;49.42;99055.09;5071991;28;20219;-56
2023/10/05 08:40:37;;;;;;;19.33;7.90;;;;;;;23.06;49.07;99086.88;5071887;28;20242;-56
2023/10/05 08:43:10;;;;;;;18.15;7.15;;;;;;;22.95;50.60;99068.75;5094580;28;20179;-56
2023/10/05 08:45:46;;;;;;;16.27;7.00;;;;;;;23.17;49.47;99086.56;5094020;28;20184;-56
2023/10/05 08:48:20;;;;;;;19.15;7.63;;;;;;;22.95;50.31;99047.66;5094470;28;20669;-55
2023/10/05 08:50:55;;;;;;;18.45;6.97;;;;;;;23.00;50.22;99053.22;5094349;28;20592;-56
2023/10/05 08:53:21;;;;;;;16.60;7.43;;;;;;;23.06;50.23;99063.94;5094357;28;20207;-56
2023/10/05 08:55:49;;;;;;;16.13;7.63;;;;;;;23.06;50.12;99055.19;5094232;28;20323;-56
2023/10/05 08:58:18;;;;;;;10.45;6.53;;;;;;;23.28;50.01;99086.22;5094011;28;20552;-56
2023/10/05 09:00:45;;;;;;;17.15;7.28;;;;;;;23.09;49.98;99044.31;5094302;28;20207;-56
2023/10/05 09:03:49;;;;;;;15.90;7.20;;;;;;;23.37;49.85;99082.59;5094185;28;20701;-56
2023/10/05 09:06:13;;;;;;;16.45;7.55;;;;;;;23.37;50.11;99085.22;5091600;28;20212;-56
2023/10/05 09:09:08;;;;;;;21.42;7.72;;;;;;;23.35;49.59;99066.06;5094192;28;20171;-56
2023/10/05 09:11:34;;;;;;;15.40;7.40;;;;;;;23.36;50.02;99063.25;5094061;28;20188;-56
2023/10/05 09:14:12;;;;;;;14.68;8.20;;;;;;;23.55;50.34;99083.19;5093916;28;20593;-56
2023/10/05 09:16:43;;;;;;;19.23;8.57;;;;;;;23.60;49.57;99075.56;5110392;28;20226;-56
2023/10/05 09:19:17;;;;;;;14.15;8.13;;;;;;;23.50;49.29;99049.34;5113913;28;20171;-56
2023/10/05 09:21:44;;;;;;;18.10;7.75;;;;;;;23.73;48.30;99074.03;5114168;28;20185;-56
2023/10/05 09:24:22;;;;;;;15.77;7.82;;;;;;;23.66;48.73;99056.38;5113191;28;20566;-56
2023/10/05 09:27:09;;;;;;;14.45;8.52;;;;;;;23.74;49.13;99083.63;5114291;28;20202;-56
2023/10/05 09:29:36;;;;;;;13.45;7.78;;;;;;;23.63;48.92;99061.00;5113494;28;20653;-57
2023/10/05 09:32:08;;;;;;;18.30;8.00;;;;;;;23.59;49.08;99039.59;5113814;28;20281;-57
2023/10/05 09:34:49;;;;;;;23.33;8.05;;;;;;;23.67;49.18;99034.25;5113481;28;20190;-57
2023/10/05 09:37:16;;;;;;;13.38;7.20;;;;;;;23.69;49.47;99033.88;5113718;28;20195;-56
2023/10/05 09:39:44;;;;;;;18.23;8.27;;;;;;;23.83;49.24;99055.31;5113781;28;20179;-57
2023/10/05 09:42:25;;;;;;;15.80;7.45;;;;;;;24.02;48.93;99061.03;5113731;28;20190;-57
2023/10/05 09:44:58;;;;;;;11.57;7.70;;;;;;;23.90;47.96;99035.16;5113937;28;20175;-56
2023/10/05 09:47:32;;;;;;;11.75;7.00;;;;;;;23.95;48.10;99027.53;5113575;28;20203;-57
2023/10/05 09:50:03;;;;;;;16.58;7.38;;;;;;;24.05;47.40;99042.16;5113544;28;20175;-58
2023/10/05 09:52:45;;;;;;;17.75;7.30;;;;;;;24.08;46.98;99033.91;5113433;28;20190;-58
2023/10/05 09:55:17;;;;;;;11.60;6.70;;;;;;;24.21;47.26;99036.78;5113780;28;20182;-58
2023/10/05 09:57:46;;;;;;;13.95;7.00;;;;;;;24.21;47.70;99019.06;5113831;28;20517;-58
2023/10/05 10:00:27;;;;;;;14.77;7.78;;;;;;;24.39;47.67;99038.13;5113608;28;20190;-58
2023/10/05 10:03:01;;;;;;;11.20;7.00;;;;;;;24.29;46.90;99019.03;5113405;28;20566;-57
2023/10/05 10:05:42;;;;;;;18.55;7.22;;;;;;;24.49;47.61;99028.13;5113513;28;20644;-57
2023/10/05 10:08:14;;;;;;;18.35;6.78;;;;;;;24.54;46.96;99020.47;5113242;28;20292;-57
2023/10/05 10:10:51;;;;;;;12.77;6.65;;;;;;;24.40;45.20;99000.09;5113244;28;20818;-57
2023/10/05 10:13:21;;;;;;;12.48;6.68;;;;;;;24.70;45.28;99025.69;5113148;28;20186;-57
2023/10/05 10:15:53;;;;;;;13.32;6.95;;;;;;;24.82;45.19;99015.47;5113043;28;20278;-55
2023/10/05 10:18:21;;;;;;;12.23;6.80;;;;;;;24.54;45.00;98991.38;5112601;28;20171;-56
2023/10/05 10:20:49;;;;;;;13.15;6.25;;;;;;;24.76;45.00;98998.50;5113045;28;20167;-56
2023/10/05 10:23:35;;;;;;;16.33;6.80;;;;;;;24.89;44.39;99003.16;5113042;28;20170;-56
2023/10/05 10:26:16;;;;;;;16.33;8.52;;;;;;;24.90;44.94;98992.38;5112889;28;20673;-57
2023/10/05 10:31:19;;;;;;;15.85;6.47;;;;;;;25.16;44.03;98978.69;5049687;28;20219;-57
2023/10/05 10:33:50;;;;;;;16.52;6.63;;;;;;;25.44;43.78;98999.09;5049427;28;20188;-56
2023/10/05 10:36:18;;;;;;;12.88;6.90;;;;;;;25.47;42.94;98997.88;5048407;28;20193;-56
2023/10/05 10:38:50;;;;;;;13.65;7.47;;;;;;;25.61;43.37;98994.41;5049590;28;20193;-57
2023/10/05 10:41:16;;;;;;;14.98;6.55;;;;;;;25.56;42.29;98955.22;5049638;28;20185;-57
2023/10/05 10:43:52;;;;;;;13.82;6.47;;;;;;;25.75;42.51;98954.59;5049398;28;20215;-57
2023/10/05 10:46:29;;;;;;;12.02;6.32;;;;;;;25.97;41.51;98974.88;5049301;28;20205;-57
2023/10/05 10:48:58;;;;;;;12.38;6.57;;;;;;;25.90;41.96;98942.13;5049188;28;20209;-57
2023/10/05 10:51:37;;;;;;;9.65;5.93;;;;;;;26.02;42.24;98939.81;5048884;28;20690;-57
2023/10/05 10:54:08;;;;;;;15.68;6.95;;;;;;;26.35;42.10;98970.94;5049200;28;20185;-56
2023/10/05 10:56:42;;;;;;;12.02;6.20;;;;;;;26.35;40.89;98946.25;5048518;28;20606;-57
2023/10/05 10:59:10;;;;;;;14.70;5.82;;;;;;;26.37;41.10;98929.09;5058185;28;20204;-57
2023/10/05 11:01:43;;;;;;;11.80;5.97;;;;;;;26.48;41.09;98930.44;5091749;28;20252;-56
2023/10/05 11:04:25;;;;;;;10.70;5.90;;;;;;;26.47;40.34;98926.13;5091870;28;20540;-57
2023/10/05 11:07:17;;;;;;;10.90;5.43;;;;;;;26.56;39.51;98947.06;5091668;28;20234;-57
2023/10/05 11:09:52;;;;;;;12.18;5.30;;;;;;;26.59;39.01;98928.06;5009084;28;20232;-57
2023/10/05 11:12:21;;;;;;;8.75;5.85;;;;;;;26.76;39.95;98944.56;5009275;28;20710;-57
2023/10/05 11:14:47;;;;;;;14.52;5.60;;;;;;;26.65;39.90;98911.38;5009030;28;20248;-56
2023/10/05 11:17:23;;;;;;;11.05;6.18;;;;;;;26.82;39.87;98923.31;5009321;28;20695;-56
2023/10/05 11:19:49;;;;;;;12.38;5.80;;;;;;;26.60;39.04;98926.25;5009100;28;20256;-56
2023/10/05 11:22:23;;;;;;;15.07;6.38;;;;;;;26.35;38.57;98895.81;5009089;28;20657;-55
2023/10/05 11:25:47;;;;;;;13.00;6.78;;;;;;;26.64;39.95;98930.97;5009057;28;20186;-56
2023/10/05 11:27:56;;;;;;;9.18;5.43;;;;;;;26.49;38.87;98901.03;5006091;28;20791;-57
2023/10/05 11:30:25;;;;;;;14.80;5.75;;;;;;;26.54;39.49;98930.50;5009060;28;20191;-56
2023/10/05 11:32:56;;;;;;;9.43;5.53;;;;;;;26.74;39.42;98910.22;5008968;28;20240;-57
2023/10/05 11:35:28;;;;;;;12.35;5.97;;;;;;;26.91;38.95;98916.88;5008886;28;20288;-56
2023/10/05 11:38:04;;;;;;;52.63;41.05;;;;;;;26.99;39.45;98914.03;5008940;28;20190;-56
2023/10/05 11:40:31;;;;;;;10.02;6.18;;;;;;;27.15;38.77;98908.41;5025233;28;20189;-56
2023/10/05 11:42:56;;;;;;;8.93;5.97;;;;;;;26.95;38.06;98875.59;5048413;28;20577;-57
2023/10/05 11:45:23;;;;;;;11.32;5.70;;;;;;;27.14;38.23;98912.06;5048274;28;20177;-57
2023/10/05 11:47:53;;;;;;;10.52;5.55;;;;;;;27.09;38.61;98903.88;5048167;28;20216;-56
2023/10/05 11:50:28;;;;;;;9.60;5.68;;;;;;;27.14;38.40;98913.91;5048345;28;20228;-56
2023/10/05 11:52:58;;;;;;;17.25;6.15;;;;;;;27.07;38.43;98907.75;5028316;28;20252;-56
2023/10/05 11:55:23;;;;;;;9.13;5.40;;;;;;;27.02;38.12;98908.34;5028333;28;20304;-57
2023/10/05 11:57:49;;;;;;;13.77;5.55;;;;;;;26.83;38.37;98873.69;5028456;28;20193;-57
2023/10/05 12:00:16;;;;;;;16.52;5.57;;;;;;;26.75;38.91;98874.66;5046896;28;20276;-57
2023/10/05 12:02:43;;;;;;;12.38;5.90;;;;;;;26.86;38.20;98887.41;5048136;28;20284;-57
2023/10/05 12:05:10;;;;;;;9.88;5.28;;;;;;;26.71;38.56;98873.41;5048179;28;20193;-56
2023/10/05 12:07:38;;;;;;;15.82;5.82;;;;;;;26.88;37.59;98903.94;5047924;28;20266;-57